Meteorología y climatología de Navarra
Datos de la estación - Meteo Navarra

Estación de Sartaguda GN

Altitud 310 m.


Datos desde el 30/06/2020 hasta el 01/07/2020 en horario solar
Los datos son PROVISIONALES

Anterior Página 1 de 1 Siguiente Descargar: Formato para Excel 2000 o superior   Formato csv   Formato para OpenOffice Calc
Fecha Temperatura Humedad relativa Radiación global Insolación Precipitación Vel. viento 10 m Vel. viento 10 m Dir. viento 10 m
ºC % W/m² s l/m² m/s km/h º
30/06/2020 0:00 16.3 82 0.0 0 0.0 1.6 5.7 316
30/06/2020 0:10 16.4 82 0.0 0 0.0 1.8 6.3 312
30/06/2020 0:20 16.2 82 0.0 0 0.0 1.1 4.1 298
30/06/2020 0:30 16.1 82 0.0 0 0.0 1.5 5.4 320
30/06/2020 0:40 16.0 83 0.0 0 0.0 1.5 5.5 315
30/06/2020 0:50 16.1 83 0.0 0 0.0 1.6 5.8 323
30/06/2020 1:00 16.0 83 0.0 0 0.0 1.2 4.3 316
30/06/2020 1:10 15.9 83 0.0 0 0.0 1.2 4.3 294
30/06/2020 1:20 15.9 83 0.0 0 0.0 1.3 4.5 321
30/06/2020 1:30 15.8 84 0.0 0 0.0 1.2 4.5 331
30/06/2020 1:40 15.7 85 0.0 0 0.0 1.2 4.2 323
30/06/2020 1:50 15.5 85 0.0 0 0.0 1.5 5.4 314
30/06/2020 2:00 15.6 85 0.0 0 0.0 1.4 5.1 327
30/06/2020 2:10 15.6 86 0.0 0 0.0 2.3 8.1 349
30/06/2020 2:20 15.5 86 0.0 0 0.0 2.7 9.7 341
30/06/2020 2:30 15.4 86 0.0 0 0.0 2.8 10.0 334
30/06/2020 2:40 15.4 86 0.0 0 0.0 2.5 9.1 326
30/06/2020 2:50 15.5 86 0.0 0 0.0 2.9 10.6 327
30/06/2020 3:00 15.4 86 0.0 0 0.0 3.2 11.5 325
30/06/2020 3:10 15.4 86 0.0 0 0.0 2.4 8.7 327
30/06/2020 3:20 15.3 87 0.0 0 0.0 2.1 7.6 329
30/06/2020 3:30 15.2 87 0.0 0 0.0 1.6 5.6 322
30/06/2020 3:40 15.1 87 0.0 0 0.0 1.6 5.8 335
30/06/2020 3:50 15.1 88 0.0 0 0.0 2.1 7.6 338
30/06/2020 4:00 15.0 88 0.0 0 0.0 2.7 9.6 339
30/06/2020 4:10 15.0 87 0.0 0 0.0 2.4 8.6 323
30/06/2020 4:20 15.0 87 0.0 0 0.0 2.0 7.2 325
30/06/2020 4:30 14.9 87 0.0 0 0.0 2.0 7.3 325
30/06/2020 4:40 14.9 87 0.0 0 0.0 2.1 7.6 326
30/06/2020 4:50 14.8 87 3.9 0 0.0 1.9 6.9 322
30/06/2020 5:00 14.8 87 24.4 186 0.0 1.5 5.4 316
30/06/2020 5:10 14.9 87 43.9 600 0.0 1.5 5.4 296
30/06/2020 5:20 15.0 86 64.4 600 0.0 1.7 6.1 313
30/06/2020 5:30 15.3 86 88.4 600 0.0 1.9 6.8 289
30/06/2020 5:40 15.6 84 113.4 600 0.0 3.1 11.1 285
30/06/2020 5:50 15.8 83 138.8 600 0.0 2.9 10.3 304
30/06/2020 6:00 16.1 82 165.5 600 0.0 2.4 8.7 301
30/06/2020 6:10 16.3 82 194.4 600 0.0 2.4 8.5 316
30/06/2020 6:20 16.6 81 223.7 600 0.0 2.4 8.8 309
30/06/2020 6:30 16.9 80 255.2 600 0.0 2.9 10.5 316
30/06/2020 6:40 17.2 78 286.7 600 0.0 2.3 8.2 298
30/06/2020 6:50 17.6 78 317.6 600 0.0 2.9 10.6 315
30/06/2020 7:00 17.7 76 350.9 600 0.0 3.0 10.7 312
30/06/2020 7:10 18.0 76 382.8 600 0.0 4.0 14.4 326
30/06/2020 7:20 18.0 75 414.2 600 0.0 4.3 15.3 326
30/06/2020 7:30 18.4 73 445.9 600 0.0 3.3 12.0 306
30/06/2020 7:40 18.8 73 479.6 600 0.0 3.2 11.4 320
30/06/2020 7:50 19.2 73 508.7 600 0.0 2.7 9.8 328
30/06/2020 8:00 19.5 71 537.9 600 0.0 2.5 8.8 297
30/06/2020 8:10 19.9 69 567.5 600 0.0 2.6 9.4 306
30/06/2020 8:20 20.2 68 594.6 600 0.0 2.4 8.5 328
30/06/2020 8:30 20.6 66 623.6 600 0.0 2.3 8.2 323
30/06/2020 8:40 21.1 64 650.3 600 0.0 2.4 8.8 355
30/06/2020 8:50 21.5 60 677.8 600 0.0 2.2 7.7 0
30/06/2020 9:00 21.8 56 703.6 600 0.0 1.8 6.4 336
30/06/2020 9:10 22.1 56 726.0 600 0.0 1.1 3.9 343
30/06/2020 9:20 22.5 55 746.7 600 0.0 1.1 3.9 339
30/06/2020 9:30 23.1 52 770.3 600 0.0 0.9 3.2 336
30/06/2020 9:40 23.5 45 792.8 600 0.0 0.7 2.6 286
30/06/2020 9:50 24.0 43 813.0 600 0.0 0.8 3.0 265
30/06/2020 10:00 24.2 46 833.0 600 0.0 0.9 3.1 287
30/06/2020 10:10 24.7 46 851.0 600 0.0 1.0 3.4 238
30/06/2020 10:20 25.2 44 868.0 600 0.0 0.4 1.5 225
30/06/2020 10:30 25.5 39 882.0 600 0.0 0.6 2.1 214
30/06/2020 10:40 25.9 43 894.0 600 0.0 0.6 2.0 353
30/06/2020 10:50 26.1 43 912.0 600 0.0 0.9 3.2 250
30/06/2020 11:00 26.2 43 921.0 600 0.0 0.7 2.5 153
30/06/2020 11:10 26.5 43 935.0 600 0.0 1.4 5.0 162
30/06/2020 11:20 26.7 42 942.0 600 0.0 1.0 3.5 127
30/06/2020 11:30 27.1 43 946.0 600 0.0 0.5 1.9 348
30/06/2020 11:40 27.5 40 954.0 600 0.0 1.0 3.6 163
30/06/2020 11:50 27.7 41 962.0 600 0.0 1.4 5.0 83
30/06/2020 12:00 27.7 38 962.0 600 0.0 0.6 2.2 353
30/06/2020 12:10 28.0 39 965.0 600 0.0 1.7 6.0 352
30/06/2020 12:20 28.3 40 964.0 600 0.0 1.1 3.9 93
30/06/2020 12:30 28.5 39 967.0 600 0.0 1.9 6.7 132
30/06/2020 12:40 28.7 39 964.0 600 0.0 1.0 3.7 53
30/06/2020 12:50 29.1 38 957.0 600 0.0 1.1 4.0 115
30/06/2020 13:00 28.8 38 950.0 600 0.0 2.1 7.6 151
30/06/2020 13:10 29.0 37 945.0 600 0.0 1.6 5.7 97
30/06/2020 13:20 29.5 36 937.0 600 0.0 1.5 5.5 81
30/06/2020 13:30 29.3 37 928.0 600 0.0 2.0 7.1 114
30/06/2020 13:40 29.5 35 916.0 600 0.0 1.2 4.2 160
30/06/2020 13:50 29.7 35 909.0 600 0.0 1.9 7.0 127
30/06/2020 14:00 29.9 35 889.0 600 0.0 1.3 4.7 108
30/06/2020 14:10 30.1 37 878.0 600 0.0 1.9 6.9 141
30/06/2020 14:20 30.1 39 866.0 600 0.0 2.6 9.3 118
30/06/2020 14:30 30.1 39 860.0 600 0.0 1.9 6.9 118
30/06/2020 14:40 30.4 40 842.0 600 0.0 1.4 4.9 110
30/06/2020 14:50 30.5 38 688.7 600 0.0 2.2 7.8 123
30/06/2020 15:00 30.2 40 565.0 500 0.0 1.8 6.4 125
30/06/2020 15:10 30.1 38 319.4 176 0.0 1.5 5.5 134
30/06/2020 15:20 29.3 40 270.7 96 0.0 2.0 7.0 133
30/06/2020 15:30 29.5 42 377.2 106 0.0 1.2 4.4 111
30/06/2020 15:40 30.1 38 805.0 600 0.0 2.0 7.1 150
30/06/2020 15:50 30.2 37 252.8 30 0.0 1.3 4.8 150
30/06/2020 16:00 29.3 41 217.5 0 0.0 2.4 8.7 137
30/06/2020 16:10 28.6 41 141.5 0 0.0 4.2 15.2 167
30/06/2020 16:20 28.2 42 77.2 0 0.0 2.7 9.8 183
30/06/2020 16:30 28.0 43 46.1 0 0.0 2.8 10.0 203
30/06/2020 16:40 27.7 45 35.1 0 0.0 3.1 11.0 205
30/06/2020 16:50 27.4 47 27.9 0 0.0 3.4 12.1 228
30/06/2020 17:00 27.4 44 19.9 0 0.0 2.4 8.8 227
30/06/2020 17:10 27.6 42 16.9 0 0.0 1.9 6.8 225
30/06/2020 17:20 26.9 48 17.3 0 0.0 4.4 15.7 59
30/06/2020 17:30 26.4 49 18.5 0 0.0 6.3 22.6 137
30/06/2020 17:40 26.3 52 20.9 0 0.0 3.1 11.3 226
30/06/2020 17:50 26.3 50 26.5 0 0.0 2.2 7.8 262
30/06/2020 18:00 26.7 45 26.7 0 0.0 2.7 9.8 249
30/06/2020 18:10 26.6 47 10.0 0 0.0 2.5 8.9 273
30/06/2020 18:20 27.3 45 0.0 0 0.0 2.3 8.3 273
30/06/2020 18:30 27.5 45 0.0 0 0.0 2.1 7.7 232
30/06/2020 18:40 26.8 51 0.0 0 0.0 2.8 10.0 105
30/06/2020 18:50 26.0 55 0.0 0 0.0 2.9 10.3 59
30/06/2020 19:00 26.0 55 0.0 0 0.0 4.2 15.3 279
30/06/2020 19:10 25.3 59 0.0 0 0.0 2.3 8.3 268
30/06/2020 19:20 25.0 59 0.0 0 0.0 2.2 7.9 307
30/06/2020 19:30 24.8 60 0.0 0 0.0 2.2 8.0 296
30/06/2020 19:40 24.6 61 0.0 0 0.0 2.3 8.2 279
30/06/2020 19:50 24.4 63 0.0 0 0.1 1.5 5.5 218
30/06/2020 20:00 23.7 70 0.0 0 0.0 3.0 10.8 54
30/06/2020 20:10 22.6 74 0.0 0 0.1 3.1 11.1 81
30/06/2020 20:20 23.5 65 0.0 0 0.0 4.9 17.6 197
30/06/2020 20:30 23.8 61 0.0 0 0.0 6.4 22.9 267
30/06/2020 20:40 24.8 53 0.0 0 0.0 5.2 18.6 261
30/06/2020 20:50 25.7 48 0.0 0 0.0 4.8 17.3 242
30/06/2020 21:00 26.2 48 0.0 0 0.0 6.3 22.5 236
30/06/2020 21:10 25.7 49 0.0 0 0.0 5.9 21.1 214
30/06/2020 21:20 24.5 56 0.0 0 0.0 4.5 16.3 166
30/06/2020 21:30 23.2 63 0.0 0 0.0 3.3 11.9 120
30/06/2020 21:40 24.0 54 0.0 0 0.0 3.4 12.2 106
30/06/2020 21:50 24.4 54 0.0 0 0.0 1.7 6.0 162
30/06/2020 22:00 24.2 53 0.0 0 0.0 2.3 8.4 309
30/06/2020 22:10 25.0 49 0.0 0 0.1 3.8 13.5 271
30/06/2020 22:20 25.5 48 0.0 0 0.0 2.9 10.5 251
30/06/2020 22:30 25.0 52 0.0 0 0.0 1.8 6.4 63
30/06/2020 22:40 23.9 60 0.0 0 0.0 2.5 9.1 37
30/06/2020 22:50 23.0 65 0.0 0 0.0 2.2 7.9 285
30/06/2020 23:00 23.1 65 0.0 0 0.0 2.1 7.7 258
30/06/2020 23:10 23.2 62 0.0 0 0.0 1.4 5.1 322
30/06/2020 23:20 23.1 64 0.0 0 0.0 2.0 7.3 14
30/06/2020 23:30 22.8 65 0.0 0 0.0 2.4 8.6 299
30/06/2020 23:40 22.8 65 0.0 0 0.0 2.5 8.9 344
30/06/2020 23:50 22.7 64 0.0 0 0.0 1.7 6.0 335
Anterior Página 1 de 1 Siguiente

NOTA: Tipo de datos según el color:
   - Valores diarios o 10 minutos correctos
   - Valores diarios calculados a partir de un número de datos 10 minutos menor que 144 y mayor que 120, o de un número de datos semihorarios menor que 48 y mayor que 40 (caso de las estaciones de INTIA y del Ministerio)
   - Valores diez minutos estimados


Contacto        Enlaces        Aviso legal